Time;durP1;ratioP1;P1;durP2;ratioP2;P2;SDS_P1;SDS_P2;PMS_P1;PMS_P2;Temp;Humidity;BMP_temperature;BMP_pressure;BME280_temperature;BME280_humidity;BME280_pressure;Samples;Min_cycle;Max_cycle;Signal;HPM_P1;HPM_P2
2023/08/05 00:01:01;;;;;;;7.38;5.13;;;;;;;;;;4935398;29;20024;-80
2023/08/05 00:03:26;;;;;;;8.25;4.55;;;22.60;99.90;;;;;;4935067;29;20439;-78
2023/08/05 00:05:52;;;;;;;8.15;4.97;;;22.80;99.90;;;;;;4935248;29;20031;-80
2023/08/05 00:08:18;;;;;;;13.88;5.85;;;22.80;99.90;;;;;;4936571;29;20019;-82
2023/08/05 00:10:45;;;;;;;10.15;5.25;;;22.70;99.90;;;;;;4935063;29;20032;-83
2023/08/05 00:13:12;;;;;;;8.20;4.80;;;22.50;99.90;;;;;;4935210;29;20059;-76
2023/08/05 00:15:41;;;;;;;7.90;5.05;;;22.60;99.90;;;;;;4934732;29;20024;-81
2023/08/05 00:18:07;;;;;;;7.68;5.20;;;22.50;99.90;;;;;;4935275;29;20023;-82
2023/08/05 00:20:33;;;;;;;18.10;5.15;;;22.60;99.90;;;;;;4935080;29;20035;-78
2023/08/05 00:22:58;;;;;;;10.18;5.00;;;22.50;99.90;;;;;;4935358;29;20051;-83
2023/08/05 00:25:24;;;;;;;10.93;5.53;;;22.50;99.90;;;;;;4935290;29;20034;-75
2023/08/05 00:27:50;;;;;;;8.27;4.80;;;22.70;99.90;;;;;;4935051;29;20103;-75
2023/08/05 00:30:16;;;;;;;10.38;5.60;;;22.60;99.90;;;;;;4917733;29;20039;-78
2023/08/05 00:32:44;;;;;;;9.40;5.80;;;;;;;;;;4934626;29;20032;-79
2023/08/05 00:35:12;;;;;;;10.75;5.72;;;22.40;99.90;;;;;;4915083;29;20040;-80
2023/08/05 00:37:44;;;;;;;9.60;5.22;;;;;;;;;;4934678;29;20550;-78
2023/08/05 00:40:11;;;;;;;8.40;5.35;;;;;;;;;;4934804;29;20114;-79
2023/08/05 00:42:36;;;;;;;8.80;5.50;;;22.40;99.90;;;;;;4934658;29;20476;-76
2023/08/05 00:45:03;;;;;;;11.27;4.57;;;22.60;99.90;;;;;;4934767;29;20035;-80
2023/08/05 00:47:30;;;;;;;10.60;5.90;;;;;;;;;;4914481;29;20063;-79
2023/08/05 00:49:58;;;;;;;10.90;4.63;;;;;;;;;;4942532;29;20379;-74
2023/08/05 00:52:25;;;;;;;12.73;5.30;;;22.60;99.90;;;;;;4934513;29;20476;-77
2023/08/05 00:54:51;;;;;;;9.40;5.20;;;;;;;;;;4917220;29;20043;-75
2023/08/05 00:57:20;;;;;;;8.50;5.30;;;22.30;99.90;;;;;;4934748;29;20154;-79
2023/08/05 00:59:46;;;;;;;9.38;5.13;;;22.50;99.90;;;;;;4917495;29;20034;-78
2023/08/05 01:02:12;;;;;;;7.90;5.00;;;22.50;99.90;;;;;;4934572;29;20469;-78
2023/08/05 01:04:37;;;;;;;9.65;5.60;;;22.40;99.90;;;;;;4934245;29;20031;-75
2023/08/05 01:07:07;;;;;;;6.45;4.53;;;22.50;99.90;;;;;;4938721;29;20379;-78
2023/08/05 01:09:33;;;;;;;11.45;5.38;;;22.40;99.90;;;;;;4938328;29;20032;-74
2023/08/05 01:11:59;;;;;;;7.50;4.93;;;22.40;99.90;;;;;;4938413;29;20036;-78
2023/08/05 01:14:25;;;;;;;7.28;4.80;;;22.30;99.90;;;;;;4938186;29;20062;-80
2023/08/05 01:16:51;;;;;;;10.27;5.97;;;;;;;;;;4938214;29;20024;-77
2023/08/05 01:19:22;;;;;;;7.97;5.25;;;22.50;99.90;;;;;;4937863;29;20046;-78
2023/08/05 01:22:21;;;;;;;11.38;5.43;;;22.10;99.90;;;;;;4937993;29;20055;-79
2023/08/05 01:24:56;;;;;;;9.43;5.68;;;22.10;99.90;;;;;;4937789;29;20023;-81
2023/08/05 01:27:23;;;;;;;9.45;5.97;;;22.10;99.90;;;;;;4920715;29;20054;-80
2023/08/05 01:29:49;;;;;;;8.57;4.95;;;22.10;99.90;;;;;;4937963;29;20023;-77
2023/08/05 01:32:16;;;;;;;11.10;6.45;;;22.10;99.90;;;;;;4936764;29;20221;-79
2023/08/05 01:34:43;;;;;;;15.60;5.50;;;22.10;99.90;;;;;;4937695;29;20031;-81
2023/08/05 01:37:09;;;;;;;9.18;5.32;;;22.10;99.90;;;;;;4938045;29;20086;-78
2023/08/05 01:39:34;;;;;;;10.73;5.72;;;22.10;99.90;;;;;;4937710;29;20551;-77
2023/08/05 01:42:00;;;;;;;6.82;4.60;;;22.10;99.90;;;;;;4919865;29;20036;-77
2023/08/05 01:44:26;;;;;;;9.23;5.90;;;22.10;99.90;;;;;;4937838;29;20472;-82
2023/08/05 01:46:52;;;;;;;11.48;5.63;;;22.20;99.90;;;;;;4937359;29;20024;-76
2023/08/05 01:49:17;;;;;;;8.70;5.53;;;22.10;99.90;;;;;;4929166;29;20039;-79
2023/08/05 01:51:43;;;;;;;11.30;5.85;;;22.10;99.90;;;;;;4923199;29;20023;-78
2023/08/05 01:54:09;;;;;;;8.73;5.78;;;22.20;99.90;;;;;;4937569;29;20047;-76
2023/08/05 01:56:35;;;;;;;7.03;4.57;;;22.10;99.90;;;;;;4920418;29;20062;-75
2023/08/05 01:59:08;;;;;;;11.98;6.45;;;22.20;99.90;;;;;;4917423;29;20039;-75
2023/08/05 02:01:41;;;;;;;8.52;4.80;;;22.10;99.90;;;;;;4918521;29;20126;-79
2023/08/05 02:04:07;;;;;;;10.00;5.40;;;22.10;99.90;;;;;;4920205;29;20051;-75
2023/08/05 02:06:32;;;;;;;6.95;5.00;;;22.10;99.90;;;;;;4920325;29;20051;-79
2023/08/05 02:08:58;;;;;;;9.13;5.07;;;22.00;99.90;;;;;;4919991;29;20034;-79
2023/08/05 02:11:24;;;;;;;9.02;4.60;;;22.10;99.90;;;;;;4916988;29;20115;-77
2023/08/05 02:13:50;;;;;;;9.10;4.47;;;22.10;99.90;;;;;;4929538;29;20044;-77
2023/08/05 02:16:15;;;;;;;7.93;4.85;;;22.10;99.90;;;;;;4919804;29;20499;-81
2023/08/05 02:18:41;;;;;;;6.68;4.80;;;22.00;99.90;;;;;;4937052;29;20039;-79
2023/08/05 02:21:07;;;;;;;8.85;4.93;;;22.00;99.90;;;;;;4919941;29;20151;-80
2023/08/05 02:23:33;;;;;;;9.00;5.32;;;22.00;99.90;;;;;;4936909;29;20114;-81
2023/08/05 02:26:01;;;;;;;10.82;5.05;;;22.00;99.90;;;;;;4916791;29;20028;-75
2023/08/05 02:28:26;;;;;;;7.38;4.80;;;21.90;99.90;;;;;;4929514;29;20503;-81
2023/08/05 02:30:52;;;;;;;8.38;4.72;;;22.00;99.90;;;;;;4936769;29;20023;-80
2023/08/05 02:33:18;;;;;;;8.68;4.82;;;21.90;99.90;;;;;;4916653;29;20382;-75
2023/08/05 02:35:44;;;;;;;8.32;4.90;;;22.00;99.90;;;;;;4917976;29;20020;-79
2023/08/05 02:38:09;;;;;;;8.02;4.25;;;22.00;99.90;;;;;;4936954;29;20031;-79
2023/08/05 02:40:36;;;;;;;8.82;4.90;;;22.10;99.90;;;;;;4936712;29;20387;-78
2023/08/05 02:43:01;;;;;;;7.95;4.75;;;22.10;99.90;;;;;;4936606;29;20063;-80
2023/08/05 02:45:27;;;;;;;10.18;5.20;;;22.00;99.90;;;;;;4919408;29;20087;-79
2023/08/05 02:47:54;;;;;;;8.23;5.28;;;22.00;99.90;;;;;;4919636;29;20030;-75
2023/08/05 02:50:20;;;;;;;7.90;4.93;;;21.90;99.90;;;;;;4921373;29;20130;-81
2023/08/05 02:52:58;;;;;;;7.93;4.40;;;21.90;99.90;;;;;;4919459;29;20051;-78
2023/08/05 02:55:24;;;;;;;7.57;4.43;;;21.90;99.90;;;;;;4936411;29;20062;-79
2023/08/05 02:57:49;;;;;;;6.50;4.10;;;21.80;99.90;;;;;;4919255;29;20063;-81
2023/08/05 03:00:15;;;;;;;7.22;4.57;;;21.80;99.90;;;;;;4918429;29;20036;-77
2023/08/05 03:02:41;;;;;;;7.70;4.60;;;21.70;99.90;;;;;;4915849;29;20036;-79
2023/08/05 03:05:08;;;;;;;7.38;4.70;;;21.70;99.90;;;;;;4931917;29;20487;-75
2023/08/05 03:07:34;;;;;;;8.02;5.03;;;21.70;99.90;;;;;;4915995;29;20028;-75
2023/08/05 03:10:00;;;;;;;9.55;5.10;;;21.60;99.90;;;;;;4914187;29;20040;-76
2023/08/05 03:12:26;;;;;;;7.53;4.45;;;21.60;99.90;;;;;;4917891;29;20047;-79
2023/08/05 03:14:52;;;;;;;9.80;5.45;;;21.60;99.90;;;;;;4918325;29;20575;-78
2023/08/05 03:17:18;;;;;;;10.68;5.03;;;21.60;99.90;;;;;;4918997;29;20028;-80
2023/08/05 03:19:45;;;;;;;11.93;5.32;;;21.60;99.90;;;;;;4917923;29;20036;-75
2023/08/05 03:22:11;;;;;;;10.93;5.05;;;21.80;99.90;;;;;;4924196;29;20098;-74
2023/08/05 03:24:44;;;;;;;7.72;4.72;;;21.80;99.90;;;;;;4915276;29;20032;-77
2023/08/05 03:27:09;;;;;;;8.48;5.72;;;21.80;99.90;;;;;;4925809;29;20044;-79
2023/08/05 03:29:37;;;;;;;10.85;6.38;;;21.90;99.90;;;;;;4915786;29;20059;-78
2023/08/05 03:32:04;;;;;;;9.52;5.78;;;21.90;99.90;;;;;;4916942;29;20032;-79
2023/08/05 03:34:30;;;;;;;13.40;5.07;;;21.90;99.90;;;;;;4915332;29;20078;-74
2023/08/05 03:36:57;;;;;;;11.55;5.35;;;21.80;99.90;;;;;;4928565;29;20036;-78
2023/08/05 03:39:23;;;;;;;7.70;5.47;;;21.80;99.90;;;;;;4919731;29;20039;-80
2023/08/05 03:41:49;;;;;;;9.35;5.30;;;21.80;99.90;;;;;;4935402;29;20051;-76
2023/08/05 03:44:15;;;;;;;10.52;5.63;;;21.80;99.90;;;;;;4915262;29;20031;-74
2023/08/05 03:46:41;;;;;;;14.88;6.47;;;21.80;99.90;;;;;;4930752;29;20491;-75
2023/08/05 03:49:06;;;;;;;19.15;6.82;;;21.80;99.90;;;;;;4918564;29;20035;-76
2023/08/05 03:51:33;;;;;;;8.98;5.57;;;21.80;99.90;;;;;;4933729;29;20074;-77
2023/08/05 03:54:03;;;;;;;9.88;5.80;;;21.80;99.90;;;;;;4914938;29;20504;-79
2023/08/05 03:56:30;;;;;;;8.85;5.88;;;21.70;99.90;;;;;;4914048;29;20169;-79
2023/08/05 03:58:58;;;;;;;10.60;6.28;;;21.80;99.90;;;;;;4915141;29;20455;-77
2023/08/05 04:01:24;;;;;;;10.32;6.10;;;21.80;99.90;;;;;;4913527;29;20035;-74
2023/08/05 04:03:52;;;;;;;10.32;6.28;;;21.80;99.90;;;;;;4935352;29;20024;-77
2023/08/05 04:06:21;;;;;;;9.80;5.60;;;21.80;99.90;;;;;;4917565;29;20043;-78
2023/08/05 04:08:54;;;;;;;7.63;5.10;;;21.90;99.90;;;;;;4935546;29;20388;-78
2023/08/05 04:11:22;;;;;;;;;;;21.80;99.90;;;;;;4935341;29;20080;-79
2023/08/05 04:13:52;;;;;;;9.60;6.07;;;21.90;99.90;;;;;;4914789;29;19915;-79
2023/08/05 04:16:19;;;;;;;9.80;6.15;;;21.80;99.90;;;;;;4933695;29;20031;-78
2023/08/05 04:18:48;;;;;;;11.73;7.25;;;21.70;99.90;;;;;;4918146;29;20186;-80
2023/08/05 04:21:15;;;;;;;12.73;6.35;;;21.70;99.90;;;;;;4934076;29;20023;-76
2023/08/05 04:23:42;;;;;;;11.50;6.28;;;21.70;99.90;;;;;;4915813;29;20413;-79
2023/08/05 04:26:08;;;;;;;10.93;6.53;;;21.70;99.90;;;;;;4909880;29;20035;-78
2023/08/05 04:28:34;;;;;;;13.30;6.30;;;21.70;99.90;;;;;;4909275;29;20070;-79
2023/08/05 04:31:00;;;;;;;9.55;5.47;;;21.70;99.90;;;;;;4915982;29;20115;-77
2023/08/05 04:33:26;;;;;;;9.38;5.60;;;21.70;99.90;;;;;;4915865;29;20389;-78
2023/08/05 04:35:52;;;;;;;9.38;5.97;;;21.70;99.90;;;;;;4915423;29;20024;-79
2023/08/05 04:38:18;;;;;;;9.38;5.85;;;21.80;99.90;;;;;;4915984;29;20385;-80
2023/08/05 04:40:44;;;;;;;10.57;5.65;;;21.70;99.90;;;;;;4915229;29;20035;-79
2023/08/05 04:43:10;;;;;;;9.25;5.88;;;21.70;99.90;;;;;;4915713;29;20032;-74
2023/08/05 04:45:48;;;;;;;10.57;5.22;;;21.80;99.90;;;;;;4916048;29;20043;-80
2023/08/05 04:48:17;;;;;;;9.80;5.30;;;21.80;99.90;;;;;;4897648;29;20037;-80
2023/08/05 04:50:43;;;;;;;10.15;6.20;;;21.80;99.90;;;;;;4926632;29;20083;-80
2023/08/05 04:53:09;;;;;;;8.73;5.78;;;21.90;99.90;;;;;;4915409;29;20035;-79
2023/08/05 04:55:35;;;;;;;9.27;6.07;;;21.80;99.90;;;;;;4915898;29;20028;-80
2023/08/05 04:58:01;;;;;;;10.70;6.07;;;21.80;99.90;;;;;;4915511;29;20048;-75
2023/08/05 05:00:27;;;;;;;10.40;5.28;;;21.80;99.90;;;;;;4898734;29;20028;-74
2023/08/05 05:02:53;;;;;;;9.40;5.10;;;21.80;99.90;;;;;;4915598;29;20036;-80
2023/08/05 05:05:19;;;;;;;8.10;5.00;;;21.80;99.90;;;;;;4915515;29;20031;-78
2023/08/05 05:07:45;;;;;;;10.18;5.03;;;21.80;99.90;;;;;;4915404;29;20421;-79
2023/08/05 05:10:11;;;;;;;8.55;5.45;;;21.90;99.90;;;;;;4915407;29;20159;-76
2023/08/05 05:12:36;;;;;;;10.98;5.90;;;21.90;99.90;;;;;;4903033;29;20096;-80
2023/08/05 05:15:03;;;;;;;8.15;5.05;;;21.90;99.90;;;;;;4915301;29;20020;-79
2023/08/05 05:17:35;;;;;;;6.30;4.60;;;22.00;99.90;;;;;;4915678;29;20063;-80
2023/08/05 05:20:04;;;;;;;9.95;5.15;;;22.00;99.90;;;;;;4915409;29;20036;-79
2023/08/05 05:22:31;;;;;;;8.98;4.47;;;22.20;99.90;;;;;;4916474;29;20052;-81
2023/08/05 05:24:57;;;;;;;9.52;4.43;;;22.20;99.90;;;;;;4915767;29;20503;-80
2023/08/05 05:27:23;;;;;;;8.30;5.05;;;22.30;99.90;;;;;;4914658;29;20354;-79
2023/08/05 05:29:49;;;;;;;6.07;3.97;;;22.40;99.90;;;;;;4913685;29;20026;-74
2023/08/05 05:32:15;;;;;;;8.90;4.50;;;22.40;99.90;;;;;;4913536;29;20449;-75
2023/08/05 05:34:41;;;;;;;5.13;3.58;;;22.50;99.90;;;;;;4914629;29;20051;-74
2023/08/05 05:37:06;;;;;;;6.05;3.45;;;22.50;99.90;;;;;;4914870;29;20087;-74
2023/08/05 05:39:32;;;;;;;9.25;3.67;;;22.60;99.90;;;;;;4913410;29;20032;-75
2023/08/05 05:41:59;;;;;;;6.10;4.50;;;22.60;99.90;;;;;;4910768;29;20511;-74
2023/08/05 05:44:28;;;;;;;6.28;3.95;;;22.60;99.90;;;;;;4915516;29;20042;-80
2023/08/05 05:46:54;;;;;;;5.75;3.70;;;22.70;99.90;;;;;;4917220;29;20110;-79
2023/08/05 05:49:20;;;;;;;6.30;3.92;;;22.90;99.90;;;;;;4916166;29;20481;-80
2023/08/05 05:51:47;;;;;;;6.68;3.80;;;23.00;99.90;;;;;;4922493;29;20020;-75
2023/08/05 05:54:13;;;;;;;5.47;3.60;;;23.10;99.90;;;;;;4922458;29;20047;-75
2023/08/05 05:56:39;;;;;;;10.27;4.43;;;23.20;99.90;;;;;;4906742;29;20115;-80
2023/08/05 05:59:05;;;;;;;10.68;4.10;;;23.30;99.90;;;;;;4923588;29;20055;-82
2023/08/05 06:01:31;;;;;;;5.90;4.10;;;23.40;99.90;;;;;;4925591;29;20033;-81
2023/08/05 06:03:57;;;;;;;8.05;5.43;;;23.40;99.90;;;;;;4923611;29;20039;-81
2023/08/05 06:06:23;;;;;;;9.65;4.63;;;23.30;99.90;;;;;;4921359;29;20078;-82
2023/08/05 06:08:49;;;;;;;10.20;5.22;;;23.40;99.90;;;;;;4919610;29;20138;-75
2023/08/05 06:11:14;;;;;;;6.18;3.90;;;23.40;99.90;;;;;;4919621;29;20563;-75
2023/08/05 06:13:40;;;;;;;6.43;3.83;;;23.50;99.90;;;;;;4912157;29;20392;-80
2023/08/05 06:16:06;;;;;;;6.45;3.97;;;23.50;99.90;;;;;;4918649;29;20032;-74
2023/08/05 06:18:32;;;;;;;7.20;4.28;;;23.50;99.90;;;;;;4918861;29;20468;-75
2023/08/05 06:20:58;;;;;;;5.63;4.13;;;23.50;99.90;;;;;;4919392;29;20040;-74
2023/08/05 06:23:24;;;;;;;9.80;4.80;;;23.60;99.90;;;;;;4923559;29;20086;-82
2023/08/05 06:25:49;;;;;;;7.28;4.35;;;23.70;99.90;;;;;;4901965;29;20039;-81
2023/08/05 06:28:15;;;;;;;10.60;6.03;;;23.90;99.90;;;;;;4918224;29;20047;-80
2023/08/05 06:30:47;;;;;;;9.57;6.20;;;24.00;99.90;;;;;;4918002;29;20032;-73
2023/08/05 06:33:13;;;;;;;10.02;6.68;;;24.10;99.90;;;;;;4903364;29;20119;-82
2023/08/05 06:35:40;;;;;;;13.05;7.82;;;24.30;99.90;;;;;;4913030;29;20035;-79
2023/08/05 06:38:06;;;;;;;12.20;8.13;;;24.50;99.90;;;;;;4907111;29;20095;-81
2023/08/05 06:40:32;;;;;;;11.68;6.72;;;24.70;99.90;;;;;;4907420;29;20040;-77
2023/08/05 06:42:58;;;;;;;8.35;4.38;;;24.70;99.90;;;;;;4911214;29;20032;-76
2023/08/05 06:45:24;;;;;;;12.68;6.25;;;24.80;99.90;;;;;;4902050;29;20020;-80
2023/08/05 06:47:49;;;;;;;12.85;6.97;;;24.80;99.90;;;;;;4916187;29;20068;-81
2023/08/05 06:50:15;;;;;;;13.70;7.43;;;25.00;99.90;;;;;;4898848;29;20387;-80
2023/08/05 06:52:41;;;;;;;15.10;8.60;;;25.10;99.90;;;;;;4908232;29;20548;-81
2023/08/05 06:55:08;;;;;;;15.73;9.65;;;25.20;99.90;;;;;;4902258;29;20028;-74
2023/08/05 06:57:34;;;;;;;16.42;10.95;;;25.10;99.90;;;;;;4907494;29;20106;-81
2023/08/05 07:00:01;;;;;;;21.70;12.50;;;25.10;99.90;;;;;;4911114;29;20059;-80
2023/08/05 07:02:26;;;;;;;18.38;11.38;;;24.80;99.90;;;;;;4903443;29;20437;-83
2023/08/05 07:04:53;;;;;;;17.55;11.55;;;25.20;99.90;;;;;;4907151;29;20020;-73
2023/08/05 07:07:19;;;;;;;21.45;13.80;;;25.60;99.90;;;;;;4906133;29;20056;-83
2023/08/05 07:09:45;;;;;;;17.65;11.35;;;25.80;99.90;;;;;;4910762;29;20032;-81
2023/08/05 07:12:11;;;;;;;18.80;12.60;;;25.60;99.90;;;;;;4911443;29;20103;-83
2023/08/05 07:14:38;;;;;;;16.90;11.90;;;26.10;99.90;;;;;;4899107;29;20174;-83
2023/08/05 07:17:04;;;;;;;18.10;13.10;;;26.40;99.90;;;;;;4909955;29;20043;-81
2023/08/05 07:19:30;;;;;;;14.02;9.82;;;26.40;99.90;;;;;;4904343;29;20237;-81
2023/08/05 07:21:56;;;;;;;13.93;8.60;;;26.70;99.90;;;;;;4911631;28;20400;-77
2023/08/05 07:24:22;;;;;;;13.35;9.07;;;26.60;99.90;;;;;;4913375;29;20115;-78
2023/08/05 07:26:48;;;;;;;13.43;7.97;;;26.10;99.90;;;;;;4910268;29;20484;-80
2023/08/05 07:29:13;;;;;;;14.00;8.75;;;26.10;99.90;;;;;;4912063;29;20029;-80
2023/08/05 07:31:39;;;;;;;13.88;8.55;;;26.60;99.90;;;;;;4904280;29;20024;-82
2023/08/05 07:34:05;;;;;;;14.65;8.80;;;26.70;99.90;;;;;;4906640;29;20541;-81
2023/08/05 07:36:31;;;;;;;14.80;8.40;;;26.70;99.90;;;;;;4912261;29;20107;-82
2023/08/05 07:38:59;;;;;;;14.80;10.25;;;27.00;99.90;;;;;;4911892;29;20083;-79
2023/08/05 07:41:26;;;;;;;14.20;9.98;;;27.00;99.90;;;;;;4907102;29;20060;-76
2023/08/05 07:43:57;;;;;;;15.57;9.40;;;27.20;99.90;;;;;;4906652;29;20088;-82
2023/08/05 07:46:25;;;;;;;15.48;9.52;;;27.40;99.90;;;;;;4906366;29;20042;-84
2023/08/05 07:48:56;;;;;;;19.90;12.00;;;27.70;99.90;;;;;;4916489;29;20207;-82
2023/08/05 07:51:23;;;;;;;19.17;11.75;;;28.20;99.90;;;;;;4904040;29;20392;-75
2023/08/05 07:53:50;;;;;;;16.55;11.57;;;28.10;99.90;;;;;;4909439;29;20040;-83
2023/08/05 07:56:16;;;;;;;20.38;12.68;;;27.90;99.90;;;;;;4905758;29;20040;-78
2023/08/05 07:58:45;;;;;;;23.55;12.90;;;27.70;99.90;;;;;;4906588;29;20764;-84
2023/08/05 08:01:13;;;;;;;18.55;13.05;;;27.60;99.90;;;;;;4909666;29;20040;-79
2023/08/05 08:03:43;;;;;;;17.83;12.20;;;27.80;99.90;;;;;;4898836;29;20037;-83
2023/08/05 08:06:10;;;;;;;19.58;12.75;;;28.40;99.90;;;;;;4898193;29;20108;-82
2023/08/05 08:08:35;;;;;;;18.15;12.02;;;28.70;99.90;;;;;;4899876;29;20029;-81
2023/08/05 08:11:01;;;;;;;21.27;13.10;;;29.20;99.90;;;;;;4901813;29;20035;-78
2023/08/05 08:13:27;;;;;;;17.83;12.52;;;29.60;98.90;;;;;;4909706;29;20120;-81
2023/08/05 08:15:53;;;;;;;18.13;12.07;;;29.20;96.20;;;;;;4911726;29;20028;-82
2023/08/05 08:18:19;;;;;;;19.77;13.25;;;29.50;96.00;;;;;;4907293;29;20032;-78
2023/08/05 08:20:52;;;;;;;21.50;13.25;;;28.80;96.00;;;;;;4902650;29;20755;-82
2023/08/05 08:23:18;;;;;;;20.48;13.13;;;29.00;98.50;;;;;;4904581;29;20049;-73
2023/08/05 08:25:44;;;;;;;21.00;13.25;;;29.20;97.90;;;;;;4916839;29;20035;-80
2023/08/05 08:28:10;;;;;;;18.75;12.27;;;29.40;96.50;;;;;;4908576;29;20481;-76
2023/08/05 08:30:36;;;;;;;18.00;13.93;;;29.20;95.60;;;;;;4910225;29;20064;-81
2023/08/05 08:33:02;;;;;;;21.88;13.95;;;29.40;98.80;;;;;;4905892;29;20079;-72
2023/08/05 08:35:28;;;;;;;25.88;13.27;;;29.30;97.40;;;;;;4903419;29;20029;-79
2023/08/05 08:37:53;;;;;;;31.17;13.63;;;29.00;97.60;;;;;;4901552;29;20035;-80
2023/08/05 08:40:19;;;;;;;19.27;12.57;;;29.10;97.60;;;;;;4917236;29;20035;-81
2023/08/05 08:42:47;;;;;;;16.75;12.98;;;28.30;96.20;;;;;;4903730;29;20473;-72
2023/08/05 08:45:15;;;;;;;19.83;12.25;;;28.20;98.50;;;;;;4901827;29;20025;-77
2023/08/05 08:47:42;;;;;;;16.92;12.07;;;28.20;98.50;;;;;;4905395;29;20039;-79
2023/08/05 08:50:09;;;;;;;18.77;12.55;;;28.30;97.60;;;;;;4907446;29;20035;-76
2023/08/05 08:52:35;;;;;;;20.08;12.65;;;28.70;98.60;;;;;;4915529;29;20044;-83
2023/08/05 08:55:03;;;;;;;19.75;13.80;;;28.90;98.00;;;;;;4917497;29;20035;-75
2023/08/05 08:57:29;;;;;;;21.85;13.45;;;29.10;98.50;;;;;;4916960;29;20075;-83
2023/08/05 08:59:55;;;;;;;18.75;13.68;;;29.40;99.30;;;;;;4915057;29;20028;-81
2023/08/05 09:02:24;;;;;;;22.98;14.77;;;29.70;98.90;;;;;;4905355;29;20043;-72
2023/08/05 09:04:53;;;;;;;19.52;13.77;;;29.50;97.10;;;;;;4916628;29;20110;-83
2023/08/05 09:07:25;;;;;;;20.58;14.82;;;30.00;97.30;;;;;;4917984;29;20439;-80
2023/08/05 09:09:51;;;;;;;20.23;13.85;;;28.20;96.40;;;;;;4917664;29;20071;-82
2023/08/05 09:12:17;;;;;;;20.45;13.95;;;28.80;97.40;;;;;;4899872;29;20044;-73
2023/08/05 09:14:43;;;;;;;18.25;13.25;;;28.90;96.90;;;;;;4916371;29;20043;-82
2023/08/05 09:17:13;;;;;;;19.98;14.02;;;28.80;97.20;;;;;;4919317;29;20036;-77
2023/08/05 09:19:41;;;;;;;19.52;13.70;;;29.40;98.60;;;;;;4918846;29;20476;-81
2023/08/05 09:22:07;;;;;;;17.95;13.00;;;29.60;96.60;;;;;;4916334;29;20066;-82
2023/08/05 09:24:34;;;;;;;17.25;12.90;;;29.70;96.30;;;;;;4918641;29;20056;-75
2023/08/05 09:27:01;;;;;;;19.35;12.05;;;30.30;99.90;;;;;;4917928;29;20040;-83
2023/08/05 09:29:28;;;;;;;20.13;12.75;;;30.00;94.20;;;;;;4920752;29;20028;-81
2023/08/05 09:32:04;;;;;;;23.33;13.18;;;29.50;93.80;;;;;;4921051;29;20032;-83
2023/08/05 09:34:38;;;;;;;20.55;14.10;;;28.30;95.30;;;;;;4922994;29;20517;-77
2023/08/05 09:37:06;;;;;;;20.42;15.18;;;28.50;96.10;;;;;;4923682;29;20079;-75
2023/08/05 09:39:47;;;;;;;20.67;14.52;;;28.60;97.60;;;;;;4923312;29;20095;-80
2023/08/05 09:42:31;;;;;;;22.50;14.10;;;28.60;97.10;;;;;;4910026;29;20039;-75
2023/08/05 09:44:57;;;;;;;19.88;13.30;;;28.90;98.40;;;;;;4923454;29;20418;-80
2023/08/05 09:47:28;;;;;;;21.40;14.30;;;28.90;96.50;;;;;;4921944;29;20036;-81
2023/08/05 09:49:56;;;;;;;22.08;13.93;;;28.70;97.50;;;;;;4921343;29;20088;-79
2023/08/05 09:52:23;;;;;;;21.00;15.95;;;28.70;98.30;;;;;;4921304;29;20479;-79
2023/08/05 09:54:52;;;;;;;19.02;14.30;;;29.10;98.10;;;;;;4919208;29;20020;-72
2023/08/05 09:57:20;;;;;;;22.08;16.55;;;29.70;98.70;;;;;;4912005;29;20040;-72
2023/08/05 09:59:47;;;;;;;21.67;15.55;;;30.00;98.50;;;;;;4909263;29;20047;-72
2023/08/05 10:02:19;;;;;;;21.77;16.17;;;30.00;97.50;;;;;;4921026;29;20035;-72
2023/08/05 10:04:45;;;;;;;19.90;14.13;;;29.90;98.00;;;;;;4922708;29;20035;-80
2023/08/05 10:07:14;;;;;;;19.10;14.10;;;29.90;98.00;;;;;;4923593;29;20044;-72
2023/08/05 10:09:41;;;;;;;19.88;15.45;;;;;;;;;;4921006;29;20028;-72
2023/08/05 10:12:08;;;;;;;21.10;15.13;;;30.40;96.00;;;;;;4921575;29;20028;-73
2023/08/05 10:14:34;;;;;;;20.35;14.85;;;30.50;96.40;;;;;;4921752;29;20067;-82
2023/08/05 10:17:01;;;;;;;20.35;14.43;;;30.60;95.10;;;;;;4921970;29;20032;-82
2023/08/05 10:19:33;;;;;;;19.52;13.93;;;;;;;;;;4919742;29;20086;-76
2023/08/05 10:22:12;;;;;;;21.05;14.48;;;30.50;96.20;;;;;;4919451;29;20055;-76
2023/08/05 10:25:00;;;;;;;21.80;14.60;;;30.70;96.70;;;;;;4921065;29;20071;-72
2023/08/05 10:27:43;;;;;;;17.70;13.30;;;30.60;96.50;;;;;;4909034;29;20036;-83
2023/08/05 10:30:11;;;;;;;19.42;14.18;;;;;;;;;;4918977;29;20032;-84
2023/08/05 10:32:58;;;;;;;18.63;13.05;;;;;;;;;;4921017;29;20067;-72
2023/08/05 10:35:39;;;;;;;18.75;13.63;;;31.10;99.90;;;;;;4924793;29;20495;-74
2023/08/05 10:38:16;;;;;;;21.92;14.73;;;31.00;94.40;;;;;;4920018;29;20028;-72
2023/08/05 10:40:49;;;;;;;33.00;15.95;;;30.90;94.50;;;;;;4922008;29;20118;-72
2023/08/05 10:43:30;;;;;;;22.98;14.40;;;30.60;95.20;;;;;;4921557;29;20062;-81
2023/08/05 10:45:57;;;;;;;21.58;14.32;;;30.60;95.20;;;;;;4921554;29;20024;-73
2023/08/05 10:48:41;;;;;;;19.83;14.57;;;30.50;94.70;;;;;;4921891;29;20028;-72
2023/08/05 10:51:10;;;;;;;23.80;14.88;;;30.30;95.60;;;;;;4912358;29;20024;-81
2023/08/05 10:53:36;;;;;;;21.13;14.88;;;30.30;97.20;;;;;;4911430;29;20472;-72
2023/08/05 10:56:02;;;;;;;21.15;14.95;;;30.10;96.40;;;;;;4919513;29;20027;-81
2023/08/05 10:58:29;;;;;;;20.60;13.77;;;30.20;96.30;;;;;;4918768;29;20036;-74
2023/08/05 11:01:03;;;;;;;20.73;15.77;;;30.10;96.20;;;;;;4932721;29;20036;-72
2023/08/05 11:03:31;;;;;;;18.80;13.60;;;30.30;95.90;;;;;;4914301;29;20029;-83
2023/08/05 11:06:02;;;;;;;20.67;14.98;;;30.40;96.00;;;;;;4898927;29;20028;-80
2023/08/05 11:08:28;;;;;;;21.67;13.90;;;30.40;95.40;;;;;;4903895;29;20035;-79
2023/08/05 11:10:54;;;;;;;19.17;13.02;;;30.50;95.50;;;;;;4901055;29;20032;-74
2023/08/05 11:13:20;;;;;;;17.70;13.27;;;30.70;94.50;;;;;;4918863;29;20044;-73
2023/08/05 11:16:04;;;;;;;19.02;14.80;;;30.60;94.00;;;;;;4906492;29;20024;-77
2023/08/05 11:18:31;;;;;;;21.73;15.02;;;30.30;95.30;;;;;;4906702;29;20488;-74
2023/08/05 11:20:57;;;;;;;18.30;14.27;;;30.20;95.40;;;;;;4912397;29;20021;-76
2023/08/05 11:23:24;;;;;;;21.83;15.57;;;30.00;96.30;;;;;;4913567;29;20052;-73
2023/08/05 11:25:53;;;;;;;22.48;15.20;;;29.70;97.00;;;;;;4917050;29;20436;-82
2023/08/05 11:28:20;;;;;;;20.75;13.48;;;29.60;97.80;;;;;;4911379;29;20455;-74
2023/08/05 11:30:46;;;;;;;10.98;7.72;;;29.40;96.40;;;;;;4920106;29;20428;-76
2023/08/05 11:33:12;;;;;;;12.25;7.88;;;29.20;93.40;;;;;;4904367;29;20498;-77
2023/08/05 11:35:47;;;;;;;14.13;7.63;;;28.90;92.30;;;;;;4908025;29;20029;-79
2023/08/05 11:38:17;;;;;;;12.90;8.07;;;28.70;93.60;;;;;;4909526;29;20036;-77
2023/08/05 11:40:56;;;;;;;15.20;8.80;;;28.50;93.70;;;;;;4905881;29;20072;-80
2023/08/05 11:43:23;;;;;;;17.08;8.48;;;28.30;95.00;;;;;;4911657;29;20035;-73
2023/08/05 11:45:49;;;;;;;18.70;10.10;;;28.10;99.90;;;;;;4896823;29;20384;-81
2023/08/05 11:48:25;;;;;;;19.38;10.93;;;;;;;;;;4908903;29;20032;-77
2023/08/05 11:51:00;;;;;;;16.92;9.35;;;25.20;99.90;;;;;;4916432;29;20152;-77
2023/08/05 11:53:29;;;;;;;11.18;6.93;;;25.10;99.90;;;;;;4916096;29;20457;-74
2023/08/05 11:55:55;;;;;;;10.40;5.63;;;24.50;99.90;;;;;;4916413;29;20016;-73
2023/08/05 11:58:23;;;;;;;11.55;5.10;;;24.30;99.90;;;;;;4911310;29;20381;-73
2023/08/05 12:00:53;;;;;;;17.80;4.45;;;24.00;99.90;;;;;;4902436;29;20107;-76
2023/08/05 12:03:19;;;;;;;7.80;3.30;;;23.90;99.90;;;;;;4910268;29;20056;-72
2023/08/05 12:05:46;;;;;;;9.55;3.30;;;23.80;99.90;;;;;;4916219;29;20040;-73
2023/08/05 12:08:33;;;;;;;9.85;3.70;;;23.60;99.90;;;;;;4914661;29;20028;-78
2023/08/05 12:10:58;;;;;;;11.57;3.75;;;23.30;99.90;;;;;;4916064;29;20032;-73
2023/08/05 12:13:24;;;;;;;9.35;3.47;;;23.10;99.90;;;;;;4916068;29;20044;-74
2023/08/05 12:15:50;;;;;;;6.82;3.35;;;22.80;99.90;;;;;;4916041;29;20080;-76
2023/08/05 12:18:17;;;;;;;11.27;4.53;;;22.70;99.90;;;;;;4916673;29;20123;-76
2023/08/05 12:20:47;;;;;;;7.65;3.83;;;22.70;99.90;;;;;;4915918;29;20036;-76
2023/08/05 12:23:13;;;;;;;7.88;4.20;;;22.70;99.90;;;;;;4915779;29;20055;-76
2023/08/05 12:25:38;;;;;;;10.02;4.93;;;22.60;99.90;;;;;;4907427;29;20024;-75
2023/08/05 12:28:04;;;;;;;10.18;4.25;;;22.50;99.90;;;;;;4898306;29;20473;-75
2023/08/05 12:30:30;;;;;;;10.45;4.88;;;22.40;99.90;;;;;;4911627;29;20036;-77
2023/08/05 12:32:58;;;;;;;10.30;4.70;;;22.30;99.90;;;;;;4915274;29;20043;-73
2023/08/05 12:35:25;;;;;;;11.45;5.40;;;22.40;99.90;;;;;;4915830;29;20051;-77
2023/08/05 12:37:51;;;;;;;8.85;4.53;;;22.50;99.90;;;;;;4915364;29;20032;-77
2023/08/05 12:40:16;;;;;;;10.70;4.28;;;22.60;99.90;;;;;;4915053;29;20032;-74
2023/08/05 12:42:42;;;;;;;8.68;4.75;;;22.70;99.90;;;;;;4912254;29;20091;-76
2023/08/05 12:45:08;;;;;;;7.90;4.63;;;22.80;99.90;;;;;;4896905;29;20083;-73